createdAt,value
2019-05-26T00:00:55.037Z,7.72
2019-05-26T00:01:55.056Z,7.80
2019-05-26T00:02:55.061Z,7.75
2019-05-26T00:03:55.073Z,7.69
2019-05-26T00:04:55.086Z,7.71
2019-05-26T00:05:55.098Z,7.77
2019-05-26T00:06:55.116Z,7.72
2019-05-26T00:07:55.127Z,7.71
2019-05-26T00:08:55.136Z,7.72
2019-05-26T00:09:55.149Z,7.69
2019-05-26T00:10:55.162Z,7.69
2019-05-26T00:11:55.176Z,7.63
2019-05-26T00:12:55.186Z,7.68
2019-05-26T00:13:55.210Z,7.60
2019-05-26T00:14:55.209Z,7.67
2019-05-26T00:15:55.224Z,7.55
2019-05-26T00:16:55.234Z,7.61
2019-05-26T00:17:55.264Z,7.61
2019-05-26T00:18:55.261Z,7.60
2019-05-26T00:19:55.271Z,7.53
2019-05-26T00:20:55.285Z,7.49
2019-05-26T00:21:55.299Z,7.55
2019-05-26T00:22:55.318Z,7.52
2019-05-26T00:23:56.334Z,7.48
2019-05-26T00:24:55.333Z,7.40
2019-05-26T00:25:55.348Z,7.45
2019-05-26T00:26:55.359Z,7.30
2019-05-26T00:27:55.370Z,7.31
2019-05-26T00:28:55.385Z,7.31
2019-05-26T00:29:55.402Z,7.25
2019-05-26T00:30:55.407Z,7.28
2019-05-26T00:31:55.424Z,7.20
2019-05-26T00:32:55.433Z,7.28
2019-05-26T00:33:55.443Z,7.35
2019-05-26T00:34:55.455Z,7.24
2019-05-26T00:35:55.490Z,7.23
2019-05-26T00:36:55.483Z,7.27
2019-05-26T00:37:55.493Z,7.13
2019-05-26T00:38:55.504Z,7.20
2019-05-26T00:39:55.529Z,7.15
2019-05-26T00:40:55.530Z,7.10
2019-05-26T00:41:55.552Z,7.09
2019-05-26T00:42:55.553Z,7.15
2019-05-26T00:43:55.568Z,7.23
2019-05-26T00:44:55.580Z,7.27
2019-05-26T00:45:55.596Z,7.23
2019-05-26T00:46:55.601Z,7.17
2019-05-26T00:47:55.617Z,7.27
2019-05-26T00:48:55.627Z,7.25
2019-05-26T00:49:55.637Z,7.23
2019-05-26T00:50:55.650Z,7.28
2019-05-26T00:51:55.661Z,7.25
2019-05-26T00:52:56.631Z,7.25
2019-05-26T00:53:55.688Z,7.28
2019-05-26T00:54:55.698Z,7.35
2019-05-26T00:55:55.711Z,7.34
2019-05-26T00:56:55.727Z,7.28
2019-05-26T00:57:55.736Z,7.39
2019-05-26T00:58:55.748Z,7.25
2019-05-26T00:59:55.759Z,7.28
2019-05-26T01:00:55.772Z,7.35
2019-05-26T01:01:55.783Z,7.30
2019-05-26T01:02:55.798Z,7.30
2019-05-26T01:03:55.809Z,7.31
2019-05-26T01:04:55.820Z,7.32
2019-05-26T01:05:55.833Z,7.31
2019-05-26T01:06:55.845Z,7.35
2019-05-26T01:08:05.692Z,7.30
2019-05-26T01:08:55.870Z,7.35
2019-05-26T01:09:55.881Z,7.31
2019-05-26T01:10:55.892Z,7.39
2019-05-26T01:11:55.912Z,7.43
2019-05-26T01:12:55.917Z,7.37
2019-05-26T01:13:55.945Z,7.30
2019-05-26T01:14:55.951Z,7.31
2019-05-26T01:15:55.952Z,7.34
2019-05-26T01:16:56.325Z,7.27
2019-05-26T01:17:55.978Z,7.28
2019-05-26T01:18:55.990Z,7.31
2019-05-26T01:19:56.003Z,7.27
2019-05-26T01:20:56.019Z,7.34
2019-05-26T01:21:56.026Z,7.37
2019-05-26T01:22:56.042Z,7.31
2019-05-26T01:23:56.053Z,7.21
2019-05-26T01:24:56.064Z,7.25
2019-05-26T01:25:56.077Z,7.12
2019-05-26T01:26:56.088Z,7.20
2019-05-26T01:27:56.104Z,7.09
2019-05-26T01:28:56.115Z,7.09
2019-05-26T01:29:56.129Z,7.12
2019-05-26T01:30:56.139Z,7.07
2019-05-26T01:31:56.149Z,7.06
2019-05-26T01:32:56.164Z,7.13
2019-05-26T01:33:56.176Z,7.05
2019-05-26T01:34:56.211Z,7.10
2019-05-26T01:35:56.203Z,7.03
2019-05-26T01:36:56.211Z,7.03
2019-05-26T01:37:56.220Z,7.02
2019-05-26T01:38:56.234Z,6.98
2019-05-26T01:39:56.245Z,6.98
2019-05-26T01:40:56.261Z,6.99
2019-05-26T01:41:56.269Z,7.03
2019-05-26T01:42:56.284Z,7.02
2019-05-26T01:43:56.294Z,6.97
2019-05-26T01:44:56.306Z,6.99
2019-05-26T01:45:56.329Z,6.97
2019-05-26T01:46:56.330Z,7.03
2019-05-26T01:47:56.342Z,6.98
2019-05-26T01:48:56.356Z,7.02
2019-05-26T01:49:56.365Z,7.02
2019-05-26T01:50:56.378Z,6.97
2019-05-26T01:51:56.393Z,6.98
2019-05-26T01:52:56.404Z,6.99
2019-05-26T01:53:56.413Z,7.02
2019-05-26T01:54:56.425Z,6.95
2019-05-26T01:55:56.439Z,6.95
2019-05-26T01:56:56.450Z,7.03
2019-05-26T01:57:56.466Z,7.03
2019-05-26T01:58:56.474Z,7.02
2019-05-26T01:59:56.486Z,6.97
2019-05-26T02:00:56.502Z,6.94
2019-05-26T02:01:58.747Z,7.02
2019-05-26T02:02:56.529Z,6.92
2019-05-26T02:03:56.588Z,6.91
2019-05-26T02:04:56.546Z,6.94
2019-05-26T02:05:56.556Z,6.95
2019-05-26T02:06:56.569Z,6.92
2019-05-26T02:07:56.580Z,6.97
2019-05-26T02:08:56.593Z,6.89
2019-05-26T02:09:56.609Z,6.99
2019-05-26T02:10:56.620Z,6.94
2019-05-26T02:11:56.627Z,6.95
2019-05-26T02:12:56.640Z,6.88
2019-05-26T02:13:56.650Z,6.91
2019-05-26T02:14:56.684Z,6.95
2019-05-26T02:15:56.675Z,6.94
2019-05-26T02:16:56.687Z,6.97
2019-05-26T02:17:56.698Z,6.89
2019-05-26T02:18:56.726Z,6.91
2019-05-26T02:19:56.721Z,6.91
2019-05-26T02:20:56.734Z,6.91
2019-05-26T02:21:56.744Z,6.97
2019-05-26T02:22:56.756Z,6.98
2019-05-26T02:23:56.769Z,6.94
2019-05-26T02:24:56.781Z,6.91
2019-05-26T02:25:56.793Z,6.94
2019-05-26T02:26:56.807Z,6.89
2019-05-26T02:27:56.820Z,6.94
2019-05-26T02:28:56.835Z,6.94
2019-05-26T02:29:56.839Z,6.95
2019-05-26T02:30:56.853Z,6.95
2019-05-26T02:31:56.866Z,6.95
2019-05-26T02:32:56.878Z,6.97
2019-05-26T02:33:56.887Z,6.94
2019-05-26T02:34:56.903Z,6.99
2019-05-26T02:35:56.911Z,6.89
2019-05-26T02:36:56.924Z,6.91
2019-05-26T02:37:56.934Z,6.92
2019-05-26T02:39:02.782Z,6.94
2019-05-26T02:39:56.961Z,6.91
2019-05-26T02:40:56.970Z,6.89
2019-05-26T02:41:57.001Z,6.85
2019-05-26T02:42:56.993Z,6.79
2019-05-26T02:43:57.009Z,6.76
2019-05-26T02:44:59.445Z,6.73
2019-05-26T02:45:57.031Z,6.74
2019-05-26T02:46:57.047Z,6.66
2019-05-26T02:47:57.052Z,6.67
2019-05-26T02:48:57.066Z,6.70
2019-05-26T02:49:57.079Z,6.66
2019-05-26T02:50:57.087Z,6.61
2019-05-26T02:51:57.099Z,6.66
2019-05-26T02:52:57.112Z,6.67
2019-05-26T02:53:57.121Z,6.62
2019-05-26T02:54:57.134Z,6.67
2019-05-26T02:55:57.163Z,6.69
2019-05-26T02:56:57.159Z,6.66
2019-05-26T02:57:57.193Z,6.66
2019-05-26T02:58:57.184Z,6.61
2019-05-26T02:59:57.195Z,6.61
2019-05-26T03:00:57.218Z,6.58
2019-05-26T03:02:03.575Z,6.58
2019-05-26T03:02:57.228Z,6.58
2019-05-26T03:03:57.238Z,6.56
2019-05-26T03:04:57.258Z,6.61
2019-05-26T03:05:57.269Z,6.56
2019-05-26T03:06:57.278Z,6.55
2019-05-26T03:07:57.290Z,6.62
2019-05-26T03:08:57.302Z,6.61
2019-05-26T03:09:57.309Z,6.51
2019-05-26T03:10:57.322Z,6.55
2019-05-26T03:11:57.333Z,6.51
2019-05-26T03:12:57.345Z,6.56
2019-05-26T03:13:57.361Z,6.56
2019-05-26T03:14:57.368Z,6.61
2019-05-26T03:15:57.380Z,6.58
2019-05-26T03:16:57.393Z,6.58
2019-05-26T03:17:57.403Z,6.52
2019-05-26T03:18:57.414Z,6.56
2019-05-26T03:19:57.427Z,6.52
2019-05-26T03:20:57.444Z,6.49
2019-05-26T03:21:57.450Z,6.51
2019-05-26T03:22:57.469Z,6.44
2019-05-26T03:23:57.474Z,6.49
2019-05-26T03:24:57.485Z,6.49
2019-05-26T03:25:57.497Z,6.59
2019-05-26T03:26:57.508Z,6.56
2019-05-26T03:27:57.520Z,6.59
2019-05-26T03:28:57.535Z,6.58
2019-05-26T03:29:57.541Z,6.56
2019-05-26T03:30:57.559Z,6.49
2019-05-26T03:31:57.567Z,6.44
2019-05-26T03:32:57.582Z,6.46
2019-05-26T03:33:57.588Z,6.38
2019-05-26T03:34:57.600Z,6.34
2019-05-26T03:35:57.612Z,6.37
2019-05-26T03:36:57.628Z,6.38
2019-05-26T03:37:57.641Z,6.22
2019-05-26T03:38:57.646Z,6.34
2019-05-26T03:39:57.658Z,6.31
2019-05-26T03:40:57.666Z,6.28
2019-05-26T03:41:57.680Z,6.25
2019-05-26T03:42:57.688Z,6.30
2019-05-26T03:43:57.700Z,6.25
2019-05-26T03:44:57.714Z,6.27
2019-05-26T03:45:57.727Z,6.33
2019-05-26T03:46:57.735Z,6.30
2019-05-26T03:47:57.747Z,6.30
2019-05-26T03:48:57.757Z,6.34
2019-05-26T03:49:57.769Z,6.33
2019-05-26T03:50:57.781Z,6.36
2019-05-26T03:51:57.790Z,6.37
2019-05-26T03:52:57.802Z,6.38
2019-05-26T03:53:57.828Z,6.36
2019-05-26T03:54:57.825Z,6.41
2019-05-26T03:55:57.842Z,6.36
2019-05-26T03:56:57.855Z,6.40
2019-05-26T03:57:57.857Z,6.37
2019-05-26T03:58:57.868Z,6.34
2019-05-26T03:59:57.879Z,6.44
2019-05-26T04:00:57.891Z,6.36
2019-05-26T04:01:58.179Z,6.37
2019-05-26T04:02:57.915Z,6.43
2019-05-26T04:03:57.926Z,6.49
2019-05-26T04:04:57.937Z,6.40
2019-05-26T04:05:57.976Z,6.49
2019-05-26T04:06:57.958Z,6.49
2019-05-26T04:07:57.976Z,6.54
2019-05-26T04:08:57.982Z,6.49
2019-05-26T04:10:04.911Z,6.56
2019-05-26T04:10:58.004Z,6.52
2019-05-26T04:11:58.019Z,6.52
2019-05-26T04:12:58.026Z,6.52
2019-05-26T04:13:58.037Z,6.48
2019-05-26T04:14:58.047Z,6.40
2019-05-26T04:15:58.061Z,6.44
2019-05-26T04:16:58.077Z,6.46
2019-05-26T04:17:58.083Z,6.43
2019-05-26T04:18:58.098Z,6.22
2019-05-26T04:19:58.113Z,6.22
2019-05-26T04:20:58.130Z,6.21
2019-05-26T04:21:58.129Z,6.27
2019-05-26T04:22:58.148Z,6.31
2019-05-26T04:23:58.153Z,6.36
2019-05-26T04:24:58.161Z,6.25
2019-05-26T04:25:58.175Z,6.31
2019-05-26T04:26:58.186Z,6.31
2019-05-26T04:27:58.193Z,6.33
2019-05-26T04:28:58.207Z,6.34
2019-05-26T04:29:58.220Z,6.36
2019-05-26T04:30:58.229Z,6.30
2019-05-26T04:32:01.879Z,6.33
2019-05-26T04:32:58.252Z,6.33
2019-05-26T04:33:58.260Z,6.33
2019-05-26T04:34:58.273Z,6.41
2019-05-26T04:35:58.297Z,6.30
2019-05-26T04:36:58.303Z,6.28
2019-05-26T04:37:58.307Z,6.22
2019-05-26T04:38:58.319Z,6.25
2019-05-26T04:39:58.336Z,6.30
2019-05-26T04:40:58.341Z,6.25
2019-05-26T04:41:58.351Z,6.25
2019-05-26T04:42:58.364Z,6.19
2019-05-26T04:43:58.375Z,6.19
2019-05-26T04:44:58.386Z,6.19
2019-05-26T04:45:58.403Z,6.08
2019-05-26T04:46:58.416Z,6.01
2019-05-26T04:47:58.419Z,6.03
2019-05-26T04:48:58.432Z,6.09
2019-05-26T04:49:58.442Z,6.00
2019-05-26T04:50:58.454Z,6.06
2019-05-26T04:51:58.468Z,6.15
2019-05-26T04:53:06.318Z,6.18
2019-05-26T04:53:58.484Z,6.19
2019-05-26T04:54:58.497Z,6.25
2019-05-26T04:55:58.508Z,6.27
2019-05-26T04:56:58.518Z,6.36
2019-05-26T04:57:58.531Z,6.37
2019-05-26T04:58:58.554Z,6.41
2019-05-26T04:59:58.559Z,6.51
2019-05-26T05:00:58.568Z,6.62
2019-05-26T05:01:58.576Z,6.54
2019-05-26T05:02:58.588Z,6.70
2019-05-26T05:03:58.598Z,6.70
2019-05-26T05:04:58.611Z,6.73
2019-05-26T05:05:58.620Z,6.79
2019-05-26T05:06:58.629Z,6.84
2019-05-26T05:07:58.644Z,6.69
2019-05-26T05:08:58.652Z,6.67
2019-05-26T05:09:58.668Z,6.56
2019-05-26T05:10:58.673Z,6.34
2019-05-26T05:11:58.685Z,6.27
2019-05-26T05:12:58.726Z,6.22
2019-05-26T05:13:58.707Z,6.34
2019-05-26T05:14:58.719Z,6.27
2019-05-26T05:15:58.740Z,6.27
2019-05-26T05:16:58.742Z,6.21
2019-05-26T05:17:58.751Z,6.25
2019-05-26T05:18:58.762Z,6.27
2019-05-26T05:19:58.776Z,6.36
2019-05-26T05:20:58.789Z,6.36
2019-05-26T05:21:58.802Z,6.36
2019-05-26T05:22:58.808Z,6.43
2019-05-26T05:23:58.820Z,6.54
2019-05-26T05:24:58.830Z,6.67
2019-05-26T05:25:58.843Z,6.61
2019-05-26T05:26:58.854Z,6.76
2019-05-26T05:27:58.866Z,6.70
2019-05-26T05:28:58.881Z,6.71
2019-05-26T05:29:58.887Z,6.56
2019-05-26T05:30:58.898Z,6.58
2019-05-26T05:31:58.913Z,6.56
2019-05-26T05:32:58.921Z,6.52
2019-05-26T05:33:58.933Z,6.64
2019-05-26T05:34:58.943Z,6.58
2019-05-26T05:35:58.954Z,6.64
2019-05-26T05:36:58.965Z,6.67
2019-05-26T05:37:58.976Z,6.69
2019-05-26T05:38:58.987Z,6.70
2019-05-26T05:39:59.000Z,6.66
2019-05-26T05:41:00.376Z,6.52
2019-05-26T05:41:59.024Z,6.61
2019-05-26T05:42:59.033Z,6.66
2019-05-26T05:43:59.047Z,6.76
2019-05-26T05:44:59.058Z,6.88
2019-05-26T05:45:59.066Z,6.99
2019-05-26T05:46:59.080Z,6.94
2019-05-26T05:47:59.090Z,6.89
2019-05-26T05:48:59.106Z,6.79
2019-05-26T05:49:59.112Z,6.71
2019-05-26T05:50:59.125Z,6.70
2019-05-26T05:51:59.135Z,6.74
2019-05-26T05:52:59.146Z,6.69
2019-05-26T05:53:59.157Z,6.52
2019-05-26T05:54:59.170Z,6.44
2019-05-26T05:55:59.182Z,6.41
2019-05-26T05:56:59.192Z,6.12
2019-05-26T05:57:59.206Z,6.03
2019-05-26T05:58:59.213Z,6.11
2019-05-26T05:59:59.225Z,6.25
2019-05-26T06:00:59.314Z,6.37
2019-05-26T06:01:59.249Z,6.33
2019-05-26T06:02:59.258Z,6.38
2019-05-26T06:03:59.270Z,6.34
2019-05-26T06:04:59.287Z,6.37
2019-05-26T06:05:59.298Z,6.34
2019-05-26T06:06:59.302Z,6.30
2019-05-26T06:07:59.318Z,6.28
2019-05-26T06:08:59.325Z,6.03
2019-05-26T06:09:59.336Z,6.00
2019-05-26T06:11:13.437Z,5.91
2019-05-26T06:11:59.358Z,6.04
2019-05-26T06:12:59.372Z,6.14
2019-05-26T06:13:59.385Z,6.21
2019-05-26T06:14:59.390Z,6.22
2019-05-26T06:15:59.403Z,6.25
2019-05-26T06:16:59.414Z,6.31
2019-05-26T06:17:59.429Z,6.36
2019-05-26T06:18:59.437Z,6.27
2019-05-26T06:19:59.447Z,6.21
2019-05-26T06:20:59.458Z,6.06
2019-05-26T06:21:59.468Z,6.15
2019-05-26T06:22:59.479Z,6.12
2019-05-26T06:23:59.490Z,6.12
2019-05-26T06:24:59.502Z,6.19
2019-05-26T06:25:59.512Z,6.22
2019-05-26T06:26:59.523Z,6.36
2019-05-26T06:27:59.616Z,6.43
2019-05-26T06:28:59.550Z,6.48
2019-05-26T06:29:59.558Z,6.56
2019-05-26T06:30:59.570Z,6.52
2019-05-26T06:32:00.034Z,6.36
2019-05-26T06:32:59.591Z,6.36
2019-05-26T06:33:59.605Z,6.36
2019-05-26T06:34:59.611Z,6.52
2019-05-26T06:35:59.623Z,6.55
2019-05-26T06:36:59.638Z,6.52
2019-05-26T06:37:59.646Z,6.31
2019-05-26T06:38:59.655Z,6.37
2019-05-26T06:39:59.670Z,6.36
2019-05-26T06:40:59.689Z,6.34
2019-05-26T06:41:59.695Z,6.36
2019-05-26T06:42:59.709Z,6.33
2019-05-26T06:43:59.711Z,6.34
2019-05-26T06:44:59.739Z,6.36
2019-05-26T06:45:59.733Z,6.43
2019-05-26T06:46:59.744Z,6.36
2019-05-26T06:47:59.756Z,6.38
2019-05-26T06:48:59.767Z,6.31
2019-05-26T06:49:59.783Z,6.25
2019-05-26T06:50:59.788Z,6.17
2019-05-26T06:51:59.800Z,6.28
2019-05-26T06:52:59.814Z,6.34
2019-05-26T06:53:59.821Z,6.37
2019-05-26T06:54:59.832Z,6.37
2019-05-26T06:55:59.843Z,6.51
2019-05-26T06:56:59.855Z,6.52
2019-05-26T06:57:59.879Z,6.51
2019-05-26T06:59:02.699Z,6.59
2019-05-26T06:59:59.889Z,6.52
2019-05-26T07:00:59.898Z,6.55
2019-05-26T07:01:59.909Z,6.48
2019-05-26T07:02:59.922Z,6.59
2019-05-26T07:03:59.933Z,6.44
2019-05-26T07:04:59.943Z,6.30
2019-05-26T07:05:59.952Z,6.30
2019-05-26T07:06:59.964Z,6.36
2019-05-26T07:07:59.975Z,6.25
2019-05-26T07:08:59.988Z,6.25
2019-05-26T07:10:00.011Z,6.36
2019-05-26T07:11:00.008Z,6.49
2019-05-26T07:12:00.669Z,6.51
2019-05-26T07:13:00.037Z,6.48
2019-05-26T07:14:00.039Z,6.48
2019-05-26T07:15:00.052Z,6.55
2019-05-26T07:16:00.064Z,6.59
2019-05-26T07:17:00.074Z,6.69
2019-05-26T07:18:00.084Z,6.55
2019-05-26T07:19:00.095Z,6.58
2019-05-26T07:20:00.141Z,6.74
2019-05-26T07:21:00.118Z,6.84
2019-05-26T07:22:00.130Z,6.67
2019-05-26T07:23:00.187Z,6.36
2019-05-26T07:24:00.150Z,6.38
2019-05-26T07:25:00.265Z,6.59
2019-05-26T07:26:00.174Z,6.55
2019-05-26T07:27:00.191Z,6.55
2019-05-26T07:28:00.195Z,6.69
2019-05-26T07:29:00.211Z,6.64
2019-05-26T07:30:00.216Z,6.59
2019-05-26T07:31:00.230Z,6.54
2019-05-26T07:32:00.238Z,6.59
2019-05-26T07:33:00.257Z,6.70
2019-05-26T07:34:00.262Z,6.70
2019-05-26T07:35:00.271Z,6.88
2019-05-26T07:36:00.291Z,6.89
2019-05-26T07:37:00.294Z,7.05
2019-05-26T07:38:00.304Z,7.15
2019-05-26T07:39:00.317Z,7.16
2019-05-26T07:40:00.327Z,7.10
2019-05-26T07:41:00.338Z,7.10
2019-05-26T07:42:10.134Z,6.92
2019-05-26T07:43:00.359Z,6.91
2019-05-26T07:44:00.375Z,6.95
2019-05-26T07:45:00.383Z,6.97
2019-05-26T07:46:00.394Z,6.99
2019-05-26T07:47:00.405Z,7.12
2019-05-26T07:48:00.420Z,7.23
2019-05-26T07:49:00.426Z,7.39
2019-05-26T07:50:00.438Z,7.16
2019-05-26T07:51:00.448Z,7.25
2019-05-26T07:52:00.462Z,7.30
2019-05-26T07:53:00.472Z,7.32
2019-05-26T07:54:00.483Z,7.32
2019-05-26T07:55:00.493Z,7.30
2019-05-26T07:56:00.506Z,7.42
2019-05-26T07:57:00.518Z,7.23
2019-05-26T07:58:00.528Z,7.09
2019-05-26T07:59:00.538Z,7.16
2019-05-26T08:00:00.550Z,7.20
2019-05-26T08:01:00.562Z,7.07
2019-05-26T08:02:00.585Z,6.87
2019-05-26T08:03:00.584Z,6.81
2019-05-26T08:04:00.597Z,6.76
2019-05-26T08:05:00.607Z,6.91
2019-05-26T08:06:00.620Z,6.91
2019-05-26T08:07:00.630Z,6.79
2019-05-26T08:08:12.192Z,6.64
2019-05-26T08:09:00.656Z,6.58
2019-05-26T08:10:00.687Z,6.66
2019-05-26T08:11:00.675Z,6.70
2019-05-26T08:12:00.686Z,6.77
2019-05-26T08:13:00.700Z,6.67
2019-05-26T08:14:00.708Z,6.79
2019-05-26T08:15:00.719Z,6.80
2019-05-26T08:16:00.733Z,6.74
2019-05-26T08:17:00.743Z,6.70
2019-05-26T08:18:00.753Z,6.56
2019-05-26T08:19:00.766Z,6.41
2019-05-26T08:20:00.776Z,6.43
2019-05-26T08:21:00.790Z,6.54
2019-05-26T08:22:00.798Z,6.38
2019-05-26T08:23:00.809Z,6.55
2019-05-26T08:24:00.819Z,6.56
2019-05-26T08:25:00.835Z,6.66
2019-05-26T08:26:00.843Z,6.84
2019-05-26T08:27:00.854Z,6.95
2019-05-26T08:28:00.867Z,6.99
2019-05-26T08:29:00.877Z,7.13
2019-05-26T08:30:00.887Z,7.32
2019-05-26T08:31:00.902Z,7.25
2019-05-26T08:32:00.910Z,7.15
2019-05-26T08:33:00.921Z,6.99
2019-05-26T08:34:00.933Z,6.91
2019-05-26T08:35:00.943Z,6.85
2019-05-26T08:36:00.955Z,6.85
2019-05-26T08:37:00.973Z,6.98
2019-05-26T08:38:00.981Z,6.98
2019-05-26T08:39:00.987Z,7.09
2019-05-26T08:40:01.014Z,7.16
2019-05-26T08:41:01.013Z,7.27
2019-05-26T08:42:01.023Z,7.25
2019-05-26T08:43:01.034Z,7.09
2019-05-26T08:44:01.044Z,7.20
2019-05-26T08:45:01.057Z,7.28
2019-05-26T08:46:01.075Z,7.20
2019-05-26T08:47:01.079Z,7.24
2019-05-26T08:48:01.103Z,7.25
2019-05-26T08:49:01.104Z,7.42
2019-05-26T08:50:01.124Z,7.57
2019-05-26T08:51:01.125Z,7.57
2019-05-26T08:52:01.136Z,7.48
2019-05-26T08:53:01.149Z,7.20
2019-05-26T08:54:01.164Z,7.09
2019-05-26T08:55:01.171Z,7.09
2019-05-26T08:56:01.182Z,7.23
2019-05-26T08:57:01.194Z,7.28
2019-05-26T08:58:01.202Z,7.37
2019-05-26T08:59:01.219Z,7.39
2019-05-26T09:00:01.227Z,7.40
2019-05-26T09:01:01.238Z,7.34
2019-05-26T09:02:01.248Z,7.42
2019-05-26T09:03:01.260Z,7.45
2019-05-26T09:04:01.271Z,7.43
2019-05-26T09:05:01.284Z,7.27
2019-05-26T09:06:01.294Z,7.28
2019-05-26T09:07:01.305Z,7.24
2019-05-26T09:08:01.317Z,7.37
2019-05-26T09:09:01.332Z,7.37
2019-05-26T09:10:01.341Z,7.24
2019-05-26T09:11:01.351Z,7.24
2019-05-26T09:12:01.362Z,7.27
2019-05-26T09:13:01.707Z,7.37
2019-05-26T09:14:01.386Z,7.16
2019-05-26T09:15:01.395Z,7.24
2019-05-26T09:16:01.406Z,7.34
2019-05-26T09:17:01.419Z,7.39
2019-05-26T09:18:01.436Z,7.45
2019-05-26T09:19:01.440Z,7.61
2019-05-26T09:20:01.455Z,7.60
2019-05-26T09:21:01.463Z,7.79
2019-05-26T09:22:01.477Z,7.72
2019-05-26T09:23:01.485Z,7.79
2019-05-26T09:24:01.498Z,7.77
2019-05-26T09:25:01.912Z,7.77
2019-05-26T09:26:01.523Z,7.89
2019-05-26T09:27:01.532Z,8.11
2019-05-26T09:28:01.554Z,8.16
2019-05-26T09:29:01.559Z,8.22
2019-05-26T09:30:01.572Z,8.16
2019-05-26T09:31:01.641Z,8.08
2019-05-26T09:32:01.593Z,7.90
2019-05-26T09:33:01.601Z,7.98
2019-05-26T09:34:01.612Z,7.80
2019-05-26T09:35:01.625Z,7.82
2019-05-26T09:36:01.636Z,7.75
2019-05-26T09:37:01.650Z,7.80
2019-05-26T09:38:01.661Z,7.90
2019-05-26T09:39:01.672Z,7.75
2019-05-26T09:40:01.691Z,7.67
2019-05-26T09:41:01.696Z,7.69
2019-05-26T09:42:01.709Z,7.58
2019-05-26T09:43:15.162Z,7.72
2019-05-26T09:44:01.730Z,7.71
2019-05-26T09:45:01.743Z,7.82
2019-05-26T09:46:01.754Z,7.72
2019-05-26T09:47:01.766Z,7.75
2019-05-26T09:48:01.778Z,7.95
2019-05-26T09:49:01.789Z,8.15
2019-05-26T09:50:01.803Z,8.16
2019-05-26T09:51:01.814Z,8.18
2019-05-26T09:52:01.823Z,8.36
2019-05-26T09:53:01.836Z,8.40
2019-05-26T09:54:02.336Z,8.22
2019-05-26T09:55:01.861Z,8.18
2019-05-26T09:56:01.873Z,8.00
2019-05-26T09:57:01.890Z,7.74
2019-05-26T09:58:01.897Z,7.89
2019-05-26T09:59:01.906Z,8.07
2019-05-26T10:00:01.920Z,8.15
2019-05-26T10:01:01.935Z,8.34
2019-05-26T10:02:01.942Z,8.40
2019-05-26T10:03:01.957Z,8.56
2019-05-26T10:04:01.973Z,8.59
2019-05-26T10:05:01.979Z,8.50
2019-05-26T10:06:01.991Z,8.33
2019-05-26T10:07:02.007Z,8.29
2019-05-26T10:08:02.015Z,8.38
2019-05-26T10:09:02.029Z,8.58
2019-05-26T10:10:02.048Z,8.61
2019-05-26T10:11:02.049Z,8.48
2019-05-26T10:12:02.065Z,8.59
2019-05-26T10:13:02.076Z,8.48
2019-05-26T10:14:02.089Z,8.62
2019-05-26T10:15:02.098Z,8.66
2019-05-26T10:16:02.113Z,8.66
2019-05-26T10:17:02.126Z,8.73
2019-05-26T10:18:02.136Z,8.56
2019-05-26T10:19:02.147Z,8.71
2019-05-26T10:20:02.169Z,8.77
2019-05-26T10:21:02.174Z,8.89
2019-05-26T10:22:02.184Z,8.92
2019-05-26T10:23:02.200Z,9.08
2019-05-26T10:24:02.209Z,8.99
2019-05-26T10:25:02.221Z,8.99
2019-05-26T10:26:02.273Z,9.18
2019-05-26T10:27:02.245Z,9.08
2019-05-26T10:28:02.260Z,8.81
2019-05-26T10:29:02.273Z,8.70
2019-05-26T10:30:02.284Z,8.80
2019-05-26T10:31:02.296Z,8.92
2019-05-26T10:32:02.310Z,8.96
2019-05-26T10:33:02.324Z,9.10
2019-05-26T10:34:02.456Z,9.23
2019-05-26T10:35:02.347Z,9.48
2019-05-26T10:36:02.359Z,9.50
2019-05-26T10:37:02.370Z,9.56
2019-05-26T10:38:02.383Z,9.61
2019-05-26T10:39:02.396Z,9.79
2019-05-26T10:40:02.407Z,9.87
2019-05-26T10:41:02.420Z,9.86
2019-05-26T10:42:02.433Z,9.74
2019-05-26T10:43:02.449Z,9.54
2019-05-26T10:44:02.460Z,9.32
2019-05-26T10:45:02.471Z,9.29
2019-05-26T10:46:02.502Z,9.35
2019-05-26T10:47:02.496Z,9.35
2019-05-26T10:48:02.511Z,9.47
2019-05-26T10:49:02.529Z,9.54
2019-05-26T10:50:02.538Z,9.65
2019-05-26T10:51:02.546Z,9.72
2019-05-26T10:52:02.560Z,9.72
2019-05-26T10:53:02.576Z,9.84
2019-05-26T10:54:02.584Z,9.72
2019-05-26T10:55:02.599Z,9.91
2019-05-26T10:56:02.615Z,9.94
2019-05-26T10:57:02.623Z,9.58
2019-05-26T10:58:02.636Z,9.75
2019-05-26T10:59:02.649Z,9.76
2019-05-26T11:00:02.668Z,9.75
2019-05-26T11:01:02.679Z,9.72
2019-05-26T11:02:02.688Z,9.84
2019-05-26T11:03:02.699Z,9.66
2019-05-26T11:04:02.713Z,9.47
2019-05-26T11:05:02.734Z,9.54
2019-05-26T11:06:02.736Z,9.51
2019-05-26T11:07:02.750Z,9.71
2019-05-26T11:08:02.773Z,9.79
2019-05-26T11:09:02.782Z,9.81
2019-05-26T11:10:02.789Z,10.17
2019-05-26T11:11:02.802Z,10.07
2019-05-26T11:12:02.815Z,9.97
2019-05-26T11:13:02.828Z,9.76
2019-05-26T11:14:03.559Z,9.89
2019-05-26T11:15:02.858Z,9.86
2019-05-26T11:16:02.870Z,9.99
2019-05-26T11:17:02.883Z,10.09
2019-05-26T11:18:02.891Z,10.11
2019-05-26T11:19:02.903Z,9.96
2019-05-26T11:20:02.917Z,9.76
2019-05-26T11:21:02.932Z,9.83
2019-05-26T11:22:02.948Z,9.89
2019-05-26T11:23:02.956Z,10.09
2019-05-26T11:24:02.969Z,9.74
2019-05-26T11:25:03.033Z,9.90
2019-05-26T11:26:03.005Z,9.78
2019-05-26T11:27:10.214Z,9.75
2019-05-26T11:28:03.028Z,9.64
2019-05-26T11:29:03.073Z,9.43
2019-05-26T11:30:03.047Z,9.48
2019-05-26T11:31:03.060Z,9.66
2019-05-26T11:32:03.074Z,9.84
2019-05-26T11:33:03.086Z,9.99
2019-05-26T11:34:03.148Z,10.01
2019-05-26T11:35:03.117Z,10.15
2019-05-26T11:36:03.123Z,10.30
2019-05-26T11:37:03.155Z,10.34
2019-05-26T11:38:03.149Z,10.29
2019-05-26T11:39:03.164Z,10.33
2019-05-26T11:40:03.178Z,10.42
2019-05-26T11:41:03.198Z,10.60
2019-05-26T11:42:13.008Z,10.66
2019-05-26T11:43:15.660Z,10.66
2019-05-26T11:44:16.990Z,10.61
2019-05-26T11:45:03.245Z,10.59
2019-05-26T11:46:03.268Z,10.60
2019-05-26T11:47:03.267Z,10.66
2019-05-26T11:48:03.285Z,10.32
2019-05-26T11:49:03.299Z,10.11
2019-05-26T11:50:03.308Z,10.23
2019-05-26T11:51:03.321Z,10.23
2019-05-26T11:52:03.334Z,10.29
2019-05-26T11:53:03.349Z,10.17
2019-05-26T11:54:03.359Z,9.71
2019-05-26T11:55:03.376Z,9.64
2019-05-26T11:56:03.388Z,9.68
2019-05-26T11:57:03.430Z,9.78
2019-05-26T11:58:03.419Z,9.97
2019-05-26T11:59:03.430Z,10.01
2019-05-26T12:00:03.575Z,10.12
2019-05-26T12:01:03.455Z,10.27
2019-05-26T12:02:03.471Z,10.23
2019-05-26T12:03:03.488Z,10.29
2019-05-26T12:04:03.495Z,10.30
2019-05-26T12:05:03.509Z,10.47
2019-05-26T12:06:03.520Z,10.41
2019-05-26T12:07:04.505Z,10.48
2019-05-26T12:08:03.550Z,10.59
2019-05-26T12:09:03.561Z,10.63
2019-05-26T12:10:03.573Z,10.78
2019-05-26T12:11:03.586Z,10.82
2019-05-26T12:12:03.600Z,10.73
2019-05-26T12:13:03.615Z,10.60
2019-05-26T12:14:03.627Z,10.48
2019-05-26T12:15:03.641Z,10.47
2019-05-26T12:16:03.653Z,10.63
2019-05-26T12:17:03.669Z,10.71
2019-05-26T12:18:03.683Z,10.85
2019-05-26T12:19:03.695Z,10.89
2019-05-26T12:20:05.307Z,10.78
2019-05-26T12:21:03.721Z,10.74
2019-05-26T12:22:03.751Z,10.18
2019-05-26T12:23:03.752Z,10.22
2019-05-26T12:24:03.762Z,10.29
2019-05-26T12:25:03.775Z,10.30
2019-05-26T12:26:03.789Z,10.45
2019-05-26T12:27:03.801Z,10.56
2019-05-26T12:28:03.816Z,10.59
2019-05-26T12:29:03.831Z,10.74
2019-05-26T12:30:03.843Z,10.79
2019-05-26T12:31:03.858Z,10.78
2019-05-26T12:32:03.875Z,10.45
2019-05-26T12:33:03.887Z,10.47
2019-05-26T12:34:03.899Z,10.33
2019-05-26T12:35:03.911Z,10.22
2019-05-26T12:36:03.925Z,10.33
2019-05-26T12:37:03.938Z,10.32
2019-05-26T12:38:03.950Z,10.52
2019-05-26T12:39:03.964Z,10.63
2019-05-26T12:40:03.981Z,10.70
2019-05-26T12:41:03.991Z,10.61
2019-05-26T12:42:04.029Z,10.81
2019-05-26T12:43:04.027Z,10.67
2019-05-26T12:44:04.037Z,10.45
2019-05-26T12:45:04.047Z,10.41
2019-05-26T12:46:04.065Z,10.41
2019-05-26T12:47:04.072Z,10.38
2019-05-26T12:48:04.090Z,10.36
2019-05-26T12:49:04.107Z,10.38
2019-05-26T12:50:04.123Z,10.32
2019-05-26T12:51:04.197Z,10.52
2019-05-26T12:52:04.144Z,10.52
2019-05-26T12:53:04.151Z,10.48
2019-05-26T12:54:04.167Z,10.68
2019-05-26T12:55:04.186Z,10.68
2019-05-26T12:56:04.192Z,10.34
2019-05-26T12:57:04.204Z,10.12
2019-05-26T12:58:04.242Z,10.30
2019-05-26T12:59:04.231Z,10.34
2019-05-26T13:00:04.252Z,10.59
2019-05-26T13:01:04.262Z,10.74
2019-05-26T13:02:04.274Z,10.91
2019-05-26T13:03:04.284Z,10.61
2019-05-26T13:04:04.298Z,10.27
2019-05-26T13:05:04.319Z,10.32
2019-05-26T13:06:04.326Z,10.36
2019-05-26T13:07:04.347Z,10.74
2019-05-26T13:08:04.355Z,10.81
2019-05-26T13:09:04.366Z,10.88
2019-05-26T13:10:04.377Z,11.03
2019-05-26T13:11:04.392Z,11.10
2019-05-26T13:12:04.408Z,11.32
2019-05-26T13:13:04.468Z,11.51
2019-05-26T13:14:04.440Z,11.64
2019-05-26T13:15:06.203Z,11.51
2019-05-26T13:16:04.459Z,11.58